CAT,Max TemperatureF,Mean TemperatureF,Min TemperatureF,Max Dew PointF,MeanDew PointF,Min DewpointF,Max Humidity, Mean Humidity, Min Humidity, Max Sea Level PressureIn, Mean Sea Level PressureIn, Min Sea Level PressureIn, Max VisibilityMiles, Mean VisibilityMiles, Min VisibilityMiles, Max Wind SpeedMPH, Mean Wind SpeedMPH, Max Gust SpeedMPH,PrecipitationIn, CloudCover, Events, WindDirDegrees
2012-11-1,80,72,63,54,49,46,68,47,28,30.18,30.07,30.01,6,6,6,21,17,32,0.00,4,,92
2012-11-2,79,68,57,48,43,39,67,41,19,30.24,30.16,30.09,6,6,6,22,16,,0.00,1,,100
2012-11-3,84,72,59,43,37,30,52,30,10,30.24,30.13,30.06,6,6,6,14,10,23,0.00,1,,100
2012-11-4,90,72,55,43,34,28,48,24,6,30.18,30.08,30.01,6,6,6,10,7,,0.00,,,116
2012-11-5,97,78,60,39,32,26,37,19,4,30.09,30.02,29.95,6,6,6,15,6,26,0.00,,,74
2012-11-6,100,78,57,34,31,28,33,16,4,30.04,29.99,29.92,6,6,6,14,5,,0.00,3,,13
2012-11-7,100,82,63,46,35,25,34,17,5,30.04,29.96,29.89,6,6,6,14,5,24,0.00,2,,351
2012-11-8,95,80,62,65,58,50,88,52,23,30.09,29.96,29.83,6,6,6,28,17,40,0.00,3,Rain-Thunderstorm,90
2012-11-9,80,70,61,63,61,59,88,73,46,30.04,29.98,29.89,6,6,6,25,17,40,0.00,2,Thunderstorm,103
2012-11-10,94,80,65,64,59,54,83,54,18,30.12,30.04,29.95,6,6,6,20,10,37,0.00,2,Rain-Thunderstorm,91
2012-11-11,86,76,75,63,63,63,65,63,61,30.12,30.12,30.12,6,6,6,21,12,,0.00,3,Rain-Thunderstorm,103
2012-11-12,89,74,74,,,,,,,,,,6,6,6,10,6,,0.00,1,,131
2012-11-13,93,79,66,,,,,,,,,,6,6,6,12,7,,0.00,1,,134
2012-11-14,90,79,68,48,47,46,30,25,15,30.09,30.03,29.98,6,6,6,17,9,,0.00,,,111
2012-11-15,86,78,69,66,59,48,73,50,29,30.12,30.07,30.01,6,6,6,21,12,,0.00,5,,103
2012-11-16,96,82,68,59,53,48,68,37,13,30.06,30.00,29.92,6,6,6,10,5,,0.00,1,,112
2012-11-17,101,84,68,63,54,50,73,34,14,30.06,29.96,29.89,6,6,6,18,6,,0.00,2,,120
2012-11-18,96,86,76,64,61,52,61,48,32,30.12,30.02,29.95,6,6,6,24,11,,0.00,2,,93
2012-11-19,98,84,71,63,59,54,73,44,21,30.09,30.01,29.92,6,6,6,10,7,,0.00,1,,111
2012-11-20,101,87,73,63,56,50,65,34,12,30.12,29.97,29.86,6,6,6,16,6,,0.00,2,,95
2012-11-21,100,85,70,66,58,55,64,39,15,29.98,29.92,29.86,6,6,6,20,6,31,0.00,1,Thunderstorm,142
2012-11-22,82,73,64,66,63,61,100,78,48,30.12,30.04,29.98,6,6,6,23,13,36,0.00,5,Rain-Thunderstorm,106
2012-11-23,82,74,66,68,64,61,94,73,41,30.12,30.04,29.95,6,6,6,14,9,,0.00,6,Rain-Thunderstorm,74
2012-11-24,91,80,68,72,65,57,94,70,31,30.01,29.93,29.80,6,6,6,16,5,,0.00,4,Rain-Thunderstorm,326
2012-11-25,77,73,69,68,67,64,94,81,69,30.12,30.03,29.92,6,6,6,12,6,,0.00,6,Rain,77
2012-11-26,76,69,62,64,61,60,100,87,51,30.24,30.19,30.15,6,6,6,22,13,,0.00,8,Rain,110
2012-11-27,77,70,62,63,59,55,94,72,50,30.27,30.22,30.12,6,6,6,20,11,,0.00,5,,96
2012-11-28,82,70,59,57,54,50,94,52,27,30.27,30.18,30.09,6,6,6,18,9,,0.00,2,,105
2012-11-29,90,73,56,61,51,41,88,45,16,30.15,30.05,29.92,6,6,6,12,5,,0.00,1,,125
2012-11-30,93,80,68,57,48,41,64,37,18,30.04,29.97,29.89,6,6,6,17,7,,0.00,1,,84